createdAt,value
2018-11-01T00:02:23.500Z,99608.03
2018-11-01T00:04:52.591Z,99601.56
2018-11-01T00:07:20.904Z,99594.41
2018-11-01T00:09:49.138Z,99589.04
2018-11-01T00:12:17.484Z,99596.36
2018-11-01T00:14:45.767Z,99588.55
2018-11-01T00:17:14.309Z,99595.39
2018-11-01T00:19:42.442Z,99573.59
2018-11-01T00:22:10.633Z,99571.67
2018-11-01T00:24:38.837Z,99592.82
2018-11-01T00:27:07.041Z,99576.23
2018-11-01T00:29:35.394Z,99591.55
2018-11-01T00:32:03.636Z,99586.19
2018-11-01T00:34:31.777Z,99582.61
2018-11-01T00:36:59.943Z,99603.92
2018-11-01T00:39:28.152Z,99593.70
2018-11-01T00:41:56.289Z,99594.84
2018-11-01T00:44:24.577Z,99588.02
2018-11-01T00:46:52.718Z,99563.80
2018-11-01T00:49:20.873Z,99584.30
2018-11-01T00:51:49.200Z,99595.69
2018-11-01T00:54:17.377Z,99592.77
2018-11-01T00:56:45.510Z,99593.25
2018-11-01T00:59:13.790Z,99590.97
2018-11-01T01:01:41.925Z,99604.67
2018-11-01T01:04:10.053Z,99605.98
2018-11-01T01:06:38.324Z,99587.91
2018-11-01T01:09:10.233Z,99600.77
2018-11-01T01:11:38.648Z,99587.09
2018-11-01T01:14:07.588Z,99589.89
2018-11-01T01:16:35.957Z,99602.42
2018-11-01T01:19:06.015Z,99586.64
2018-11-01T01:21:34.378Z,99587.77
2018-11-01T01:24:03.366Z,99579.96
2018-11-01T01:26:32.255Z,99565.02
2018-11-01T01:29:00.420Z,99558.50
2018-11-01T01:31:28.878Z,99557.52
2018-11-01T01:33:57.390Z,99551.83
2018-11-01T01:36:25.632Z,99537.01
2018-11-01T01:38:53.777Z,99540.92
2018-11-01T01:41:22.104Z,99537.50
2018-11-01T01:43:50.266Z,99535.70
2018-11-01T01:46:18.426Z,99539.29
2018-11-01T01:48:46.736Z,99544.01
2018-11-01T01:51:20.517Z,99542.88
2018-11-01T01:53:48.622Z,99545.97
2018-11-01T01:56:16.840Z,99535.68
2018-11-01T01:58:45.125Z,99527.87
2018-11-01T02:01:13.420Z,99523.80
2018-11-01T02:03:41.705Z,99540.41
2018-11-01T02:06:09.859Z,99547.89
2018-11-01T02:08:38.029Z,99539.89
2018-11-01T02:11:06.381Z,99517.75
2018-11-01T02:13:34.638Z,99509.30
2018-11-01T02:16:02.781Z,99508.64
2018-11-01T02:18:30.889Z,99516.27
2018-11-01T02:20:59.016Z,99516.43
2018-11-01T02:23:27.389Z,99524.89
2018-11-01T02:25:55.513Z,99513.97
2018-11-01T02:28:23.666Z,99498.67
2018-11-01T02:30:51.955Z,99503.85
2018-11-01T02:33:20.111Z,99512.28
2018-11-01T02:35:48.321Z,99518.92
2018-11-01T02:38:16.582Z,99507.18
2018-11-01T02:40:44.653Z,99521.79
2018-11-01T02:43:12.785Z,99515.44
2018-11-01T02:45:40.933Z,99490.72
2018-11-01T02:48:09.219Z,99478.52
2018-11-01T02:50:37.741Z,99477.19
2018-11-01T02:53:06.068Z,99493.65
2018-11-01T02:55:38.161Z,99490.53
2018-11-01T02:58:06.866Z,99481.75
2018-11-01T03:00:34.981Z,99496.05
2018-11-01T03:03:03.150Z,99499.44
2018-11-01T03:05:31.986Z,99488.05
2018-11-01T03:08:00.320Z,99476.96
2018-11-01T03:10:28.510Z,99482.66
2018-11-01T03:12:56.797Z,99484.92
2018-11-01T03:15:25.045Z,99492.73
2018-11-01T03:17:53.357Z,99501.51
2018-11-01T03:20:21.478Z,99508.50
2018-11-01T03:22:49.589Z,99506.06
2018-11-01T03:25:18.065Z,99503.46
2018-11-01T03:27:46.267Z,99505.70
2018-11-01T03:30:14.501Z,99508.79
2018-11-01T03:32:42.653Z,99525.70
2018-11-01T03:35:11.582Z,99515.45
2018-11-01T03:37:40.670Z,99520.66
2018-11-01T03:40:10.120Z,99522.45
2018-11-01T03:42:39.127Z,99521.14
2018-11-01T03:45:08.898Z,99511.55
2018-11-01T03:47:37.296Z,99512.85
2018-11-01T03:50:05.897Z,99509.77
2018-11-01T03:52:34.285Z,99506.19
2018-11-01T03:55:03.693Z,99515.30
2018-11-01T03:57:31.805Z,99504.08
2018-11-01T04:00:00.024Z,99510.45
2018-11-01T04:02:28.554Z,99504.59
2018-11-01T04:05:00.747Z,99506.23
2018-11-01T04:07:28.911Z,99506.75
2018-11-01T04:09:57.104Z,99508.38
2018-11-01T04:12:25.293Z,99503.83
2018-11-01T04:14:53.439Z,99508.87
2018-11-01T04:17:21.508Z,99497.97
2018-11-01T04:19:49.649Z,99498.49
2018-11-01T04:22:17.885Z,99506.63
2018-11-01T04:24:46.139Z,99489.06
2018-11-01T04:27:14.292Z,99477.55
2018-11-01T04:29:42.522Z,99476.90
2018-11-01T04:32:10.811Z,99472.34
2018-11-01T04:34:39.245Z,99483.89
2018-11-01T04:37:07.909Z,99486.98
2018-11-01T04:39:36.136Z,99497.06
2018-11-01T04:42:04.564Z,99497.39
2018-11-01T04:44:32.800Z,99521.13
2018-11-01T04:47:00.858Z,99508.41
2018-11-01T04:49:29.088Z,99499.47
2018-11-01T04:51:57.607Z,99499.14
2018-11-01T04:54:25.760Z,99497.84
2018-11-01T04:56:53.857Z,99487.14
2018-11-01T04:59:21.964Z,99481.78
2018-11-01T05:01:50.449Z,99483.24
2018-11-01T05:04:18.687Z,99493.00
2018-11-01T05:06:46.762Z,99494.79
2018-11-01T05:09:14.837Z,99494.79
2018-11-01T05:11:43.128Z,99490.07
2018-11-01T05:14:11.253Z,99487.34
2018-11-01T05:16:39.482Z,99498.88
2018-11-01T05:19:07.648Z,99500.19
2018-11-01T05:21:36.370Z,99497.06
2018-11-01T05:24:08.252Z,99490.89
2018-11-01T05:26:36.340Z,99480.15
2018-11-01T05:29:04.469Z,99474.13
2018-11-01T05:31:32.585Z,99469.39
2018-11-01T05:34:00.944Z,99476.58
2018-11-01T05:36:29.127Z,99481.13
2018-11-01T05:38:57.273Z,99492.87
2018-11-01T05:41:25.436Z,99491.89
2018-11-01T05:43:53.601Z,99485.39
2018-11-01T05:46:21.877Z,99487.02
2018-11-01T05:48:50.388Z,99489.94
2018-11-01T05:51:18.549Z,99481.84
2018-11-01T05:53:46.593Z,99483.78
2018-11-01T05:56:14.763Z,99496.31
2018-11-01T05:58:42.881Z,99500.70
2018-11-01T06:01:11.814Z,99507.53
2018-11-01T06:03:40.434Z,99505.75
2018-11-01T06:06:08.633Z,99499.73
2018-11-01T06:08:39.520Z,99503.63
2018-11-01T06:11:07.841Z,99511.61
2018-11-01T06:13:36.749Z,99518.92
2018-11-01T06:16:05.476Z,99518.59
2018-11-01T06:18:33.689Z,99516.81
2018-11-01T06:21:01.851Z,99513.39
2018-11-01T06:23:30.094Z,99510.66
2018-11-01T06:25:58.647Z,99514.23
2018-11-01T06:28:26.721Z,99512.61
2018-11-01T06:30:54.765Z,99507.41
2018-11-01T06:33:23.198Z,99504.17
2018-11-01T06:35:52.806Z,99500.44
2018-11-01T06:38:20.888Z,99504.98
2018-11-01T06:40:48.990Z,99508.89
2018-11-01T06:43:17.239Z,99514.30
2018-11-01T06:45:45.435Z,99506.80
2018-11-01T06:48:13.773Z,99516.08
2018-11-01T06:50:42.013Z,99507.16
2018-11-01T06:53:10.081Z,99507.80
2018-11-01T06:55:38.365Z,99498.53
2018-11-01T06:58:06.644Z,99497.42
2018-11-01T07:00:34.830Z,99507.67
2018-11-01T07:03:02.984Z,99502.78
2018-11-01T07:05:31.679Z,99502.62
2018-11-01T07:08:00.085Z,99506.36
2018-11-01T07:10:28.565Z,99506.55
2018-11-01T07:12:57.926Z,99507.69
2018-11-01T07:15:25.981Z,99502.48
2018-11-01T07:17:54.493Z,99514.52
2018-11-01T07:20:22.664Z,99524.61
2018-11-01T07:22:50.779Z,99524.12
2018-11-01T07:25:18.850Z,99529.49
2018-11-01T07:27:46.897Z,99537.66
2018-11-01T07:30:16.117Z,99540.08
2018-11-01T07:32:44.433Z,99544.47
2018-11-01T07:35:13.285Z,99562.38
2018-11-01T07:37:42.574Z,99567.27
2018-11-01T07:40:13.545Z,99575.08
2018-11-01T07:42:41.888Z,99594.91
2018-11-01T07:45:11.113Z,99605.00
2018-11-01T07:47:40.293Z,99613.98
2018-11-01T07:50:09.713Z,99602.72
2018-11-01T07:52:38.139Z,99606.98
2018-11-01T07:55:08.117Z,99609.30
2018-11-01T07:57:36.926Z,99613.69
2018-11-01T08:00:10.882Z,99608.67
2018-11-01T08:02:39.510Z,99625.28
2018-11-01T08:05:08.891Z,99626.58
2018-11-01T08:07:37.493Z,99622.51
2018-11-01T08:10:10.781Z,99638.95
2018-11-01T08:12:39.065Z,99639.77
2018-11-01T08:15:16.944Z,99645.53
2018-11-01T08:17:45.050Z,99651.39
2018-11-01T08:20:14.269Z,99644.91
2018-11-01T08:22:42.525Z,99636.14
2018-11-01T08:25:11.667Z,99646.39
2018-11-01T08:27:40.505Z,99643.81
2018-11-01T08:30:11.428Z,99648.23
2018-11-01T08:32:39.555Z,99642.20
2018-11-01T08:35:08.393Z,99648.42
2018-11-01T08:37:37.921Z,99668.32
2018-11-01T08:40:07.414Z,99657.23
2018-11-01T08:42:35.640Z,99655.47
2018-11-01T08:45:04.232Z,99645.02
2018-11-01T08:47:32.313Z,99645.70
2018-11-01T08:50:00.795Z,99643.92
2018-11-01T08:52:28.886Z,99651.59
2018-11-01T08:54:56.948Z,99656.31
2018-11-01T08:57:25.873Z,99638.56
2018-11-01T08:59:53.929Z,99641.32
2018-11-01T09:02:22.041Z,99631.22
2018-11-01T09:04:50.135Z,99632.22
2018-11-01T09:07:18.688Z,99628.78
2018-11-01T09:09:46.811Z,99624.88
2018-11-01T09:12:15.137Z,99622.58
2018-11-01T09:14:43.259Z,99628.30
2018-11-01T09:17:11.462Z,99627.14
2018-11-01T09:19:39.573Z,99630.42
2018-11-01T09:22:08.139Z,99628.46
2018-11-01T09:24:37.342Z,99617.22
2018-11-01T09:27:06.763Z,99605.28
2018-11-01T09:29:35.734Z,99591.25
2018-11-01T09:32:03.843Z,99603.96
2018-11-01T09:34:31.839Z,99602.00
2018-11-01T09:36:59.726Z,99601.83
2018-11-01T09:39:27.552Z,99586.80
2018-11-01T09:41:55.405Z,99597.71
2018-11-01T09:44:23.246Z,99585.92
2018-11-01T09:46:51.412Z,99580.66
2018-11-01T09:49:18.858Z,99574.27
2018-11-01T09:51:50.777Z,99565.60
2018-11-01T09:54:19.701Z,99562.13
2018-11-01T09:56:50.173Z,99552.62
2018-11-01T09:59:23.478Z,99547.83
2018-11-01T10:01:51.580Z,99544.53
2018-11-01T10:04:19.404Z,99548.74
2018-11-01T10:06:47.226Z,99555.55
2018-11-01T10:09:15.038Z,99555.36
2018-11-01T10:11:42.899Z,99561.20
2018-11-01T10:14:10.658Z,99574.58
2018-11-01T10:16:38.876Z,99576.83
2018-11-01T10:19:07.879Z,99580.92
2018-11-01T10:21:35.731Z,99576.77
2018-11-01T10:24:03.631Z,99574.92
2018-11-01T10:26:31.451Z,99568.29
2018-11-01T10:28:59.558Z,99568.66
2018-11-01T10:31:27.436Z,99574.60
2018-11-01T10:33:56.285Z,99582.03
2018-11-01T10:36:27.419Z,99597.48
2018-11-01T10:38:55.497Z,99611.64
2018-11-01T10:41:23.592Z,99627.30
2018-11-01T10:43:51.695Z,99624.78
2018-11-01T10:46:19.703Z,99623.07
2018-11-01T10:48:47.570Z,99613.30
2018-11-01T10:51:15.510Z,99611.89
2018-11-01T10:53:43.601Z,99620.19
2018-11-01T10:56:11.387Z,99618.31
2018-11-01T10:58:39.292Z,99629.08
2018-11-01T11:01:12.979Z,99629.70
2018-11-01T11:03:40.732Z,99627.23
2018-11-01T11:06:08.688Z,99625.42
2018-11-01T11:08:37.705Z,99626.66
2018-11-01T11:11:05.735Z,99622.00
2018-11-01T11:13:33.728Z,99631.45
2018-11-01T11:16:01.753Z,99645.19
2018-11-01T11:18:29.684Z,99645.34
2018-11-01T11:20:57.965Z,99644.14
2018-11-01T11:23:25.614Z,99636.78
2018-11-01T11:25:53.569Z,99644.61
2018-11-01T11:28:21.519Z,99667.64
2018-11-01T11:30:49.675Z,99690.45
2018-11-01T11:33:18.728Z,99686.39
2018-11-01T11:35:46.715Z,99684.42
2018-11-01T11:38:14.633Z,99682.89
2018-11-01T11:40:42.460Z,99694.27
2018-11-01T11:43:10.295Z,99685.98
2018-11-01T11:45:38.707Z,99687.33
2018-11-01T11:48:09.532Z,99665.97
2018-11-01T11:50:37.748Z,99665.15
2018-11-01T11:53:06.011Z,99663.84
2018-11-01T11:55:33.959Z,99663.97
2018-11-01T11:58:01.883Z,99671.02
2018-11-01T12:00:29.825Z,99655.85
2018-11-01T12:02:57.739Z,99640.11
2018-11-01T12:05:26.270Z,99639.95
2018-11-01T12:07:54.109Z,99635.69
2018-11-01T12:10:22.131Z,99620.85
2018-11-01T12:12:50.123Z,99617.59
2018-11-01T12:15:17.952Z,99608.20
2018-11-01T12:17:45.918Z,99606.55
2018-11-01T12:20:14.060Z,99606.17
2018-11-01T12:22:47.661Z,99597.78
2018-11-01T12:25:15.957Z,99595.23
2018-11-01T12:27:43.931Z,99597.00
2018-11-01T12:30:12.868Z,99593.33
2018-11-01T12:32:41.360Z,99589.11
2018-11-01T12:35:09.899Z,99594.88
2018-11-01T12:37:38.318Z,99593.03
2018-11-01T12:40:08.246Z,99590.05
2018-11-01T12:42:38.239Z,99581.64
2018-11-01T12:45:09.108Z,99576.82
2018-11-01T12:47:37.217Z,99575.88
2018-11-01T12:50:11.215Z,99584.27
2018-11-01T12:52:40.454Z,99582.89
2018-11-01T12:55:13.489Z,99577.44
2018-11-01T12:57:41.802Z,99581.29
2018-11-01T13:00:11.385Z,99576.27
2018-11-01T13:02:39.485Z,99569.36
2018-11-01T13:05:07.401Z,99564.23
2018-11-01T13:07:35.480Z,99564.17
2018-11-01T13:10:03.805Z,99549.05
2018-11-01T13:12:31.974Z,99545.45
2018-11-01T13:14:59.956Z,99542.33
2018-11-01T13:17:28.201Z,99541.86
2018-11-01T13:19:56.269Z,99544.17
2018-11-01T13:22:24.825Z,99545.54
2018-11-01T13:24:52.940Z,99551.52
2018-11-01T13:27:25.159Z,99557.44
2018-11-01T13:29:53.658Z,99555.79
2018-11-01T13:32:22.509Z,99549.22
2018-11-01T13:34:51.375Z,99548.83
2018-11-01T13:37:27.185Z,99549.08
2018-11-01T13:39:55.728Z,99543.05
2018-11-01T13:42:23.858Z,99547.39
2018-11-01T13:44:51.942Z,99538.58
2018-11-01T13:47:20.046Z,99538.55
2018-11-01T13:49:48.137Z,99527.38
2018-11-01T13:52:16.214Z,99524.94
2018-11-01T13:54:44.361Z,99525.80
2018-11-01T13:57:12.406Z,99519.73
2018-11-01T13:59:41.059Z,99512.58
2018-11-01T14:02:09.920Z,99512.52
2018-11-01T14:04:38.174Z,99508.17
2018-11-01T14:07:06.582Z,99507.08
2018-11-01T14:09:34.758Z,99508.80
2018-11-01T14:12:02.934Z,99512.83
2018-11-01T14:14:31.771Z,99513.09
2018-11-01T14:16:59.554Z,99513.28
2018-11-01T14:19:27.690Z,99513.20
2018-11-01T14:21:55.911Z,99510.97
2018-11-01T14:24:26.033Z,99513.28
2018-11-01T14:26:54.256Z,99526.03
2018-11-01T14:29:22.349Z,99522.14
2018-11-01T14:31:50.470Z,99538.34
2018-11-01T14:34:18.989Z,99538.64
2018-11-01T14:36:47.101Z,99534.39
2018-11-01T14:39:18.915Z,99527.14
2018-11-01T14:41:46.966Z,99524.45
2018-11-01T14:44:15.232Z,99523.16
2018-11-01T14:46:43.318Z,99516.48
2018-11-01T14:49:11.686Z,99510.14
2018-11-01T14:51:40.564Z,99519.87
2018-11-01T14:54:09.696Z,99522.34
2018-11-01T14:56:38.475Z,99528.33
2018-11-01T14:59:06.717Z,99528.39
2018-11-01T15:01:33.671Z,99531.94
2018-11-01T15:04:01.949Z,99529.03
2018-11-01T15:06:30.203Z,99533.15
2018-11-01T15:08:58.363Z,99528.36
2018-11-01T15:11:26.385Z,99529.44
2018-11-01T15:13:54.577Z,99526.78
2018-11-01T15:16:22.728Z,99530.86
2018-11-01T15:18:50.917Z,99522.27
2018-11-01T15:21:19.019Z,99518.55
2018-11-01T15:23:47.146Z,99529.36
2018-11-01T15:26:15.419Z,99527.53
2018-11-01T15:28:43.554Z,99526.53
2018-11-01T15:31:12.134Z,99524.98
2018-11-01T15:33:41.069Z,99523.67
2018-11-01T15:36:09.173Z,99531.22
2018-11-01T15:38:37.206Z,99531.53
2018-11-01T15:41:13.113Z,99532.05
2018-11-01T15:43:42.157Z,99547.02
2018-11-01T15:46:11.101Z,99560.08
2018-11-01T15:48:40.147Z,99566.67
2018-11-01T15:51:09.456Z,99572.20
2018-11-01T15:53:37.841Z,99576.38
2018-11-01T15:56:06.016Z,99569.02
2018-11-01T15:58:34.065Z,99576.59
2018-11-01T16:01:02.399Z,99571.11
2018-11-01T16:03:30.556Z,99576.80
2018-11-01T16:05:58.584Z,99578.23
2018-11-01T16:08:27.318Z,99578.02
2018-11-01T16:10:55.325Z,99578.84
2018-11-01T16:13:23.751Z,99584.50
2018-11-01T16:15:51.909Z,99582.08
2018-11-01T16:18:20.034Z,99582.89
2018-11-01T16:20:48.124Z,99589.00
2018-11-01T16:23:16.263Z,99585.23
2018-11-01T16:25:44.277Z,99590.20
2018-11-01T16:28:12.394Z,99597.28
2018-11-01T16:30:40.580Z,99600.11
2018-11-01T16:33:08.780Z,99619.34
2018-11-01T16:35:36.818Z,99635.29
2018-11-01T16:38:05.498Z,99644.39
2018-11-01T16:40:33.621Z,99643.92
2018-11-01T16:43:01.802Z,99644.02
2018-11-01T16:45:29.873Z,99656.40
2018-11-01T16:47:58.021Z,99657.42
2018-11-01T16:50:26.113Z,99659.00
2018-11-01T16:52:54.193Z,99664.51
2018-11-01T16:55:22.253Z,99676.28
2018-11-01T16:57:50.566Z,99677.00
2018-11-01T17:00:18.720Z,99681.27
2018-11-01T17:02:46.797Z,99675.45
2018-11-01T17:05:15.017Z,99687.94
2018-11-01T17:07:43.284Z,99686.80
2018-11-01T17:10:12.745Z,99695.76
2018-11-01T17:12:44.578Z,99703.77
2018-11-01T17:15:13.890Z,99716.79
2018-11-01T17:17:43.057Z,99714.23
2018-11-01T17:20:11.217Z,99724.29
2018-11-01T17:22:39.502Z,99726.08
2018-11-01T17:25:07.673Z,99722.69
2018-11-01T17:27:35.706Z,99722.96
2018-11-01T17:30:05.318Z,99729.16
2018-11-01T17:32:38.081Z,99735.50
2018-11-01T17:35:06.937Z,99731.90
2018-11-01T17:37:35.067Z,99730.89
2018-11-01T17:40:03.455Z,99735.16
2018-11-01T17:42:32.453Z,99738.91
2018-11-01T17:45:04.791Z,99743.17
2018-11-01T17:47:35.495Z,99750.89
2018-11-01T17:50:05.674Z,99757.05
2018-11-01T17:52:33.964Z,99765.22
2018-11-01T17:55:02.479Z,99778.68
2018-11-01T17:57:37.004Z,99787.89
2018-11-01T18:00:08.027Z,99789.09
2018-11-01T18:02:36.530Z,99811.77
2018-11-01T18:05:05.919Z,99821.06
2018-11-01T18:07:34.188Z,99835.59
2018-11-01T18:10:02.582Z,99842.55
2018-11-01T18:12:30.905Z,99853.34
2018-11-01T18:14:59.181Z,99847.84
2018-11-01T18:17:27.380Z,99853.20
2018-11-01T18:19:55.792Z,99843.84
2018-11-01T18:22:23.937Z,99838.08
2018-11-01T18:24:52.186Z,99823.59
2018-11-01T18:27:20.636Z,99833.11
2018-11-01T18:29:48.690Z,99839.09
2018-11-01T18:32:16.733Z,99854.78
2018-11-01T18:34:44.881Z,99851.29
2018-11-01T18:37:13.007Z,99857.02
2018-11-01T18:39:41.682Z,99856.46
2018-11-01T18:42:09.907Z,99871.89
2018-11-01T18:44:38.186Z,99872.48
2018-11-01T18:47:07.153Z,99877.02
2018-11-01T18:49:35.421Z,99884.03
2018-11-01T18:52:03.566Z,99831.28
2018-11-01T18:54:31.915Z,99766.98
2018-11-01T18:56:59.977Z,99778.61
2018-11-01T18:59:28.096Z,99849.14
2018-11-01T19:01:56.329Z,99855.41
2018-11-01T19:04:24.432Z,99841.10
2018-11-01T19:06:52.798Z,99867.91
2018-11-01T19:09:21.118Z,99861.34
2018-11-01T19:11:49.470Z,99858.91
2018-11-01T19:14:17.709Z,99857.89
2018-11-01T19:16:45.988Z,99857.28
2018-11-01T19:19:14.321Z,99845.50
2018-11-01T19:21:44.052Z,99853.08
2018-11-01T19:24:12.277Z,99860.36
2018-11-01T19:26:40.756Z,99863.18
2018-11-01T19:29:09.343Z,99854.48
2018-11-01T19:31:37.656Z,99849.89
2018-11-01T19:34:06.244Z,99849.58
2018-11-01T19:36:34.208Z,99854.03
2018-11-01T19:39:02.577Z,99862.31
2018-11-01T19:41:30.949Z,99868.58
2018-11-01T19:43:59.100Z,99884.41
2018-11-01T19:46:27.174Z,99889.20
2018-11-01T19:48:55.453Z,99897.59
2018-11-01T19:51:24.114Z,99901.23
2018-11-01T19:53:52.440Z,99904.87
2018-11-01T19:56:20.648Z,99916.74
2018-11-01T19:58:48.823Z,99927.95
2018-11-01T20:01:17.618Z,99924.75
2018-11-01T20:03:45.912Z,99929.70
2018-11-01T20:06:14.002Z,99936.27
2018-11-01T20:08:42.202Z,99942.65
2018-11-01T20:11:10.858Z,99942.14
2018-11-01T20:13:39.120Z,99942.92
2018-11-01T20:16:07.228Z,99946.36
2018-11-01T20:18:35.357Z,99950.92
2018-11-01T20:21:03.660Z,99957.50
2018-11-01T20:23:31.838Z,99969.33
2018-11-01T20:26:00.854Z,99974.42
2018-11-01T20:28:28.901Z,99979.50
2018-11-01T20:30:57.805Z,99983.13
2018-11-01T20:33:26.486Z,99989.70
2018-11-01T20:35:54.753Z,99989.39
2018-11-01T20:38:22.874Z,99990.36
2018-11-01T20:40:51.014Z,99997.78
2018-11-01T20:43:19.277Z,100001.38
2018-11-01T20:45:47.506Z,99999.75
2018-11-01T20:48:16.069Z,100002.89
2018-11-01T20:50:44.389Z,100000.14
2018-11-01T20:53:12.457Z,100005.90
2018-11-01T20:55:40.983Z,100006.55
2018-11-01T20:58:09.306Z,100012.20
2018-11-01T21:00:37.577Z,100010.76
2018-11-01T21:03:06.022Z,100023.94
2018-11-01T21:05:34.597Z,100034.33
2018-11-01T21:08:02.955Z,100034.05
2018-11-01T21:10:31.191Z,100034.77
2018-11-01T21:12:59.566Z,100036.11
2018-11-01T21:15:27.957Z,100037.48
2018-11-01T21:17:56.496Z,100039.84
2018-11-01T21:20:24.786Z,100044.15
2018-11-01T21:22:52.936Z,100042.67
2018-11-01T21:25:21.300Z,100039.27
2018-11-01T21:27:49.943Z,100038.01
2018-11-01T21:30:18.343Z,100037.53
2018-11-01T21:32:46.474Z,100033.84
2018-11-01T21:35:14.745Z,100037.67
2018-11-01T21:37:44.096Z,100036.72
2018-11-01T21:40:12.184Z,100040.87
2018-11-01T21:42:40.306Z,100045.20
2018-11-01T21:45:11.012Z,100042.11
2018-11-01T21:47:39.315Z,100038.11
2018-11-01T21:50:08.004Z,100053.11
2018-11-01T21:52:36.153Z,100054.14
2018-11-01T21:55:05.103Z,100061.06
2018-11-01T21:57:33.399Z,100067.80
2018-11-01T22:00:01.890Z,100067.63
2018-11-01T22:02:30.277Z,100071.11
2018-11-01T22:04:58.559Z,100088.98
2018-11-01T22:07:26.729Z,100087.85
2018-11-01T22:09:55.058Z,100079.49
2018-11-01T22:12:23.324Z,100083.61
2018-11-01T22:14:51.556Z,100081.48
2018-11-01T22:17:19.881Z,100084.28
2018-11-01T22:19:48.188Z,100085.28
2018-11-01T22:22:16.596Z,100089.86
2018-11-01T22:24:44.753Z,100092.02
2018-11-01T22:27:12.871Z,100089.90
2018-11-01T22:29:41.044Z,100081.25
2018-11-01T22:32:09.341Z,100081.08
2018-11-01T22:34:37.478Z,100084.23
2018-11-01T22:37:05.882Z,100087.18
2018-11-01T22:39:34.215Z,100085.23
2018-11-01T22:42:02.861Z,100089.48
2018-11-01T22:44:30.933Z,100086.23
2018-11-01T22:46:59.011Z,100082.97
2018-11-01T22:49:27.231Z,100077.87
2018-11-01T22:51:55.314Z,100078.72
2018-11-01T22:54:23.436Z,100084.31
2018-11-01T22:56:51.702Z,100077.59
2018-11-01T22:59:20.070Z,100085.63
2018-11-01T23:01:48.239Z,100085.48
2018-11-01T23:04:16.341Z,100093.66
2018-11-01T23:06:44.773Z,100105.63
2018-11-01T23:09:12.882Z,100106.62
2018-11-01T23:11:40.955Z,100107.26
2018-11-01T23:14:09.270Z,100113.98
2018-11-01T23:16:37.568Z,100122.02
2018-11-01T23:19:06.521Z,100118.87
2018-11-01T23:21:34.978Z,100114.30
2018-11-01T23:24:03.540Z,100118.89
2018-11-01T23:26:32.115Z,100124.31
2018-11-01T23:29:00.239Z,100122.19
2018-11-01T23:31:28.694Z,100122.81
2018-11-01T23:33:56.976Z,100119.06
2018-11-01T23:36:24.568Z,100125.61
2018-11-01T23:38:58.237Z,100124.80
2018-11-01T23:41:34.193Z,100125.78
2018-11-01T23:44:08.594Z,100124.30
2018-11-01T23:46:42.278Z,100125.11
2018-11-01T23:49:14.672Z,100129.70
2018-11-01T23:51:47.566Z,100125.13
2018-11-01T23:54:15.690Z,100124.00
2018-11-01T23:56:43.771Z,100120.20
2018-11-01T23:59:11.891Z,100120.20
